SIA225 WSSS-YPPH
Flight info
| Callsign | SIA225 |
|---|---|
| Flight time | N/A |
| Altitude | 37000 |
| Route | ANITO8B ANITO B470 PKP L764 LAMOB B469 IDOKU/N0486F390 B469 TOPIR/N0480F380 L514 AVPAL Q38 JULIM |
| Aircraft | B78X/H-SDE1E2E3FGHIJ2J3J4J5M1RWXY/LB1D1 |
Departure
| Time | 2026-05-01 10:02 |
|---|---|
| Airport | Singapore Changi Airport (WSSS) |
Arrival
| Time | N/A |
|---|---|
| Airport | Perth International Airport (YPPH) |
| Time | Latitude | Longitude | Altitude | Speed | Heading |
|---|---|---|---|---|---|
| 2026-05-01 09:43 | 1.35886 | 103.98575 | 33 ft | 0 kts | 137° |
| 2026-05-01 09:52 | 1.35889 | 103.98573 | 33 ft | 5 kts | 137° |
| 2026-05-01 09:52 | 1.35903 | 103.98560 | 32 ft | 6 kts | 140° |
| 2026-05-01 09:52 | 1.35919 | 103.98547 | 33 ft | 6 kts | 142° |
| 2026-05-01 09:52 | 1.35935 | 103.98535 | 30 ft | 6 kts | 144° |
| 2026-05-01 09:53 | 1.35950 | 103.98524 | 32 ft | 5 kts | 144° |
| 2026-05-01 09:53 | 1.35953 | 103.98522 | 32 ft | 9 kts | 144° |
| 2026-05-01 09:56 | 1.35949 | 103.98522 | 32 ft | 1 kts | 161° |
| 2026-05-01 09:56 | 1.35936 | 103.98509 | 31 ft | 6 kts | 227° |
| 2026-05-01 09:56 | 1.35880 | 103.98458 | 33 ft | 13 kts | 210° |
| 2026-05-01 09:57 | 1.35796 | 103.98416 | 33 ft | 13 kts | 201° |
| 2026-05-01 09:57 | 1.35710 | 103.98381 | 33 ft | 13 kts | 202° |
| 2026-05-01 09:57 | 1.35623 | 103.98345 | 33 ft | 14 kts | 204° |
| 2026-05-01 09:57 | 1.35537 | 103.98308 | 33 ft | 14 kts | 201° |
| 2026-05-01 09:58 | 1.35448 | 103.98274 | 33 ft | 14 kts | 200° |
| 2026-05-01 09:58 | 1.35362 | 103.98236 | 34 ft | 14 kts | 204° |
| 2026-05-01 09:58 | 1.35259 | 103.98190 | 34 ft | 20 kts | 203° |
| 2026-05-01 09:58 | 1.35114 | 103.98130 | 34 ft | 26 kts | 202° |
| 2026-05-01 09:59 | 1.34933 | 103.98052 | 33 ft | 23 kts | 203° |
| 2026-05-01 09:59 | 1.34824 | 103.97984 | 33 ft | 14 kts | 252° |
| 2026-05-01 09:59 | 1.34849 | 103.97895 | 34 ft | 13 kts | 297° |
| 2026-05-01 09:59 | 1.34882 | 103.97818 | 36 ft | 11 kts | 294° |
| 2026-05-01 10:00 | 1.34928 | 103.97772 | 36 ft | 9 kts | 342° |
| 2026-05-01 10:00 | 1.34965 | 103.97779 | 36 ft | 0 kts | 17° |
| 2026-05-01 10:00 | 1.34968 | 103.97780 | 36 ft | 1 kts | 18° |
| 2026-05-01 10:00 | 1.34980 | 103.97785 | 34 ft | 2 kts | 21° |
| 2026-05-01 10:01 | 1.35017 | 103.97800 | 36 ft | 13 kts | 22° |
| 2026-05-01 10:01 | 1.35303 | 103.97914 | 37 ft | 80 kts | 19° |
| 2026-05-01 10:01 | 1.36030 | 103.98224 | 32 ft | 145 kts | 23° |
| 2026-05-01 10:01 | 1.37121 | 103.98687 | 165 ft | 183 kts | 31° |
| 2026-05-01 10:02 | 1.38294 | 103.99247 | 572 ft | 191 kts | 25° |
| 2026-05-01 10:02 | 1.39520 | 103.99761 | 1221 ft | 194 kts | 25° |
| 2026-05-01 10:02 | 1.40789 | 104.00293 | 1933 ft | 200 kts | 22° |
| 2026-05-01 10:02 | 1.42092 | 104.00809 | 2836 ft | 201 kts | 22° |
| 2026-05-01 10:03 | 1.43398 | 104.01332 | 3746 ft | 204 kts | 24° |
| 2026-05-01 10:03 | 1.44742 | 104.01899 | 4513 ft | 217 kts | 24° |
| 2026-05-01 10:03 | 1.46174 | 104.02509 | 5209 ft | 232 kts | 25° |
| 2026-05-01 10:03 | 1.47635 | 104.03239 | 6115 ft | 233 kts | 42° |
| 2026-05-01 10:04 | 1.48515 | 104.04482 | 7309 ft | 216 kts | 67° |
| 2026-05-01 10:04 | 1.48787 | 104.05925 | 8147 ft | 216 kts | 96° |
| 2026-05-01 10:04 | 1.48374 | 104.07367 | 8981 ft | 218 kts | 113° |
| 2026-05-01 10:04 | 1.47718 | 104.08763 | 9710 ft | 228 kts | 115° |
| 2026-05-01 10:05 | 1.46979 | 104.10285 | 9939 ft | 260 kts | 115° |
| 2026-05-01 10:05 | 1.46171 | 104.12015 | 10302 ft | 281 kts | 114° |
| 2026-05-01 10:05 | 1.45342 | 104.13812 | 11038 ft | 287 kts | 114° |
| 2026-05-01 10:05 | 1.44495 | 104.15639 | 11828 ft | 292 kts | 114° |
| 2026-05-01 10:06 | 1.43646 | 104.17464 | 12609 ft | 296 kts | 114° |
| 2026-05-01 10:06 | 1.43055 | 104.18735 | 13152 ft | 298 kts | 114° |
| 2026-05-01 10:06 | 1.41890 | 104.21257 | 14296 ft | 305 kts | 113° |
| 2026-05-01 10:06 | 1.41297 | 104.22541 | 14883 ft | 307 kts | 113° |
| 2026-05-01 10:07 | 1.40393 | 104.24494 | 15782 ft | 312 kts | 113° |
| 2026-05-01 10:07 | 1.39477 | 104.26472 | 16678 ft | 316 kts | 113° |
| 2026-05-01 10:07 | 1.38548 | 104.28480 | 17545 ft | 320 kts | 113° |
| 2026-05-01 10:07 | 1.37606 | 104.30517 | 18373 ft | 325 kts | 113° |
| 2026-05-01 10:08 | 1.35688 | 104.34661 | 19880 ft | 333 kts | 113° |
| 2026-05-01 10:08 | 1.34711 | 104.36774 | 20634 ft | 337 kts | 113° |
| 2026-05-01 10:08 | 1.33555 | 104.38819 | 21376 ft | 341 kts | 130° |
| 2026-05-01 10:09 | 1.31777 | 104.40416 | 22107 ft | 348 kts | 148° |
| 2026-05-01 10:09 | 1.29528 | 104.41355 | 22821 ft | 355 kts | 164° |
| 2026-05-01 10:09 | 1.27150 | 104.41984 | 23437 ft | 361 kts | 162° |
| 2026-05-01 10:09 | 1.24723 | 104.42625 | 23979 ft | 366 kts | 163° |
| 2026-05-01 10:10 | 1.22240 | 104.43258 | 24534 ft | 371 kts | 163° |
| 2026-05-01 10:10 | 1.19725 | 104.43901 | 25089 ft | 375 kts | 163° |
| 2026-05-01 10:10 | 1.14616 | 104.45228 | 26192 ft | 383 kts | 163° |
| 2026-05-01 10:11 | 1.12025 | 104.45897 | 26736 ft | 387 kts | 163° |
| 2026-05-01 10:11 | 1.09433 | 104.46662 | 27266 ft | 390 kts | 162° |
| 2026-05-01 10:11 | 1.06799 | 104.47373 | 27777 ft | 395 kts | 164° |
| 2026-05-01 10:11 | 1.04120 | 104.48054 | 28300 ft | 399 kts | 163° |
| 2026-05-01 10:12 | 1.01433 | 104.48802 | 28815 ft | 403 kts | 162° |
| 2026-05-01 10:12 | 0.98727 | 104.49583 | 29325 ft | 407 kts | 162° |
| 2026-05-01 10:12 | 0.93213 | 104.51106 | 30251 ft | 414 kts | 163° |
| 2026-05-01 10:13 | 0.90455 | 104.51869 | 30694 ft | 417 kts | 162° |
| 2026-05-01 10:13 | 0.87648 | 104.52654 | 31115 ft | 420 kts | 162° |
| 2026-05-01 10:13 | 0.84826 | 104.53441 | 31541 ft | 422 kts | 163° |
| 2026-05-01 10:14 | 0.79134 | 104.55019 | 32408 ft | 427 kts | 163° |
| 2026-05-01 10:14 | 0.76264 | 104.55817 | 32816 ft | 429 kts | 163° |
| 2026-05-01 10:14 | 0.73375 | 104.56621 | 33224 ft | 431 kts | 163° |
| 2026-05-01 10:14 | 0.70476 | 104.57426 | 33626 ft | 433 kts | 163° |
| 2026-05-01 10:15 | 0.67564 | 104.58234 | 33998 ft | 435 kts | 163° |
| 2026-05-01 10:15 | 0.64688 | 104.59089 | 34330 ft | 437 kts | 161° |
| 2026-05-01 10:15 | 0.61756 | 104.59971 | 34644 ft | 439 kts | 163° |
| 2026-05-01 10:15 | 0.58800 | 104.60802 | 34957 ft | 442 kts | 162° |
| 2026-05-01 10:16 | 0.55842 | 104.61671 | 35266 ft | 444 kts | 161° |
| 2026-05-01 10:16 | 0.52874 | 104.62577 | 35573 ft | 446 kts | 162° |
| 2026-05-01 10:16 | 0.46888 | 104.64356 | 36174 ft | 451 kts | 162° |
| 2026-05-01 10:17 | 0.43910 | 104.65233 | 36461 ft | 453 kts | 162° |
| 2026-05-01 10:17 | 0.37840 | 104.67036 | 36837 ft | 457 kts | 162° |
| 2026-05-01 10:17 | 0.34766 | 104.67946 | 36851 ft | 464 kts | 162° |
| 2026-05-01 10:18 | 0.28455 | 104.69814 | 36863 ft | 481 kts | 162° |
| 2026-05-01 10:18 | 0.25210 | 104.70775 | 36863 ft | 489 kts | 162° |
| 2026-05-01 10:19 | 0.18615 | 104.72727 | 36859 ft | 495 kts | 162° |
| 2026-05-01 10:19 | 0.12054 | 104.74671 | 36865 ft | 495 kts | 162° |
| 2026-05-01 10:20 | 0.02128 | 104.77620 | 36857 ft | 495 kts | 162° |
| 2026-05-01 10:20 | -0.04469 | 104.79579 | 36861 ft | 494 kts | 162° |
| 2026-05-01 10:21 | -0.14337 | 104.82510 | 36858 ft | 495 kts | 162° |
| 2026-05-01 10:22 | -0.24250 | 104.85454 | 36855 ft | 495 kts | 162° |
| 2026-05-01 10:22 | -0.30536 | 104.88166 | 36885 ft | 492 kts | 143° |
| 2026-05-01 10:23 | -0.33384 | 104.90076 | 36862 ft | 492 kts | 144° |
| 2026-05-01 10:23 | -0.41852 | 104.95819 | 36864 ft | 490 kts | 144° |
| 2026-05-01 10:24 | -0.53119 | 105.03438 | 36865 ft | 491 kts | 144° |
| 2026-05-01 10:25 | -0.58777 | 105.07263 | 37492 ft | 491 kts | 144° |
| 2026-05-01 10:25 | -0.64437 | 105.11095 | 38189 ft | 489 kts | 144° |
| 2026-05-01 10:26 | -0.67260 | 105.13005 | 38527 ft | 488 kts | 144° |
| 2026-05-01 10:26 | -0.70075 | 105.14909 | 38797 ft | 488 kts | 144° |
| 2026-05-01 10:27 | -0.81204 | 105.22441 | 38841 ft | 483 kts | 144° |
| 2026-05-01 10:28 | -0.89561 | 105.28096 | 38842 ft | 483 kts | 144° |
| 2026-05-01 10:28 | -0.97901 | 105.33740 | 38842 ft | 483 kts | 144° |
| 2026-05-01 10:29 | -1.06253 | 105.39394 | 38840 ft | 483 kts | 144° |
| 2026-05-01 10:30 | -1.17338 | 105.46897 | 38840 ft | 482 kts | 144° |
| 2026-05-01 10:31 | -1.28433 | 105.54407 | 38842 ft | 482 kts | 144° |
| 2026-05-01 10:32 | -1.36757 | 105.60043 | 38843 ft | 481 kts | 144° |
| 2026-05-01 10:33 | -1.47843 | 105.67549 | 38847 ft | 480 kts | 144° |
| 2026-05-01 10:34 | -1.56078 | 105.73125 | 38847 ft | 478 kts | 144° |
| 2026-05-01 10:34 | -1.61585 | 105.76854 | 38848 ft | 477 kts | 144° |
| 2026-05-01 10:35 | -1.69838 | 105.82444 | 38850 ft | 477 kts | 144° |
| 2026-05-01 10:35 | -1.75299 | 105.86143 | 38850 ft | 477 kts | 144° |
| 2026-05-01 10:36 | -1.83548 | 105.91730 | 38849 ft | 477 kts | 144° |
| 2026-05-01 10:37 | -1.89041 | 105.95452 | 38847 ft | 477 kts | 144° |
| 2026-05-01 10:37 | -1.97257 | 106.01018 | 38849 ft | 477 kts | 144° |
| 2026-05-01 10:38 | -2.02760 | 106.04747 | 38850 ft | 478 kts | 144° |
| 2026-05-01 10:38 | -2.08263 | 106.08476 | 38848 ft | 478 kts | 144° |
| 2026-05-01 10:39 | -2.13766 | 106.12205 | 38850 ft | 477 kts | 144° |
| 2026-05-01 10:39 | -2.19782 | 106.15031 | 38901 ft | 484 kts | 162° |
| 2026-05-01 10:40 | -2.26273 | 106.16819 | 38865 ft | 483 kts | 163° |
| 2026-05-01 10:40 | -2.32772 | 106.18570 | 38865 ft | 483 kts | 162° |
| 2026-05-01 10:41 | -2.39223 | 106.20339 | 38861 ft | 484 kts | 163° |
| 2026-05-01 10:42 | -2.48969 | 106.22988 | 38867 ft | 484 kts | 162° |
| 2026-05-01 10:42 | -2.55475 | 106.24759 | 38864 ft | 485 kts | 163° |
| 2026-05-01 10:43 | -2.61998 | 106.26535 | 38864 ft | 485 kts | 163° |
| 2026-05-01 10:43 | -2.68531 | 106.28315 | 38861 ft | 486 kts | 163° |
| 2026-05-01 10:44 | -2.75063 | 106.30094 | 38861 ft | 487 kts | 163° |
| 2026-05-01 10:44 | -2.81608 | 106.31878 | 38860 ft | 487 kts | 163° |
| 2026-05-01 10:45 | -2.88157 | 106.33662 | 38860 ft | 488 kts | 163° |
| 2026-05-01 10:45 | -2.94676 | 106.35439 | 38857 ft | 488 kts | 163° |
| 2026-05-01 10:46 | -3.01236 | 106.37226 | 38855 ft | 488 kts | 163° |
| 2026-05-01 10:46 | -3.07807 | 106.39017 | 38855 ft | 488 kts | 163° |
| 2026-05-01 10:47 | -3.14370 | 106.40806 | 38856 ft | 489 kts | 163° |
| 2026-05-01 10:47 | -3.20930 | 106.42595 | 38856 ft | 489 kts | 163° |
| 2026-05-01 10:48 | -3.27508 | 106.44389 | 38859 ft | 489 kts | 163° |
| 2026-05-01 10:48 | -3.34034 | 106.46169 | 38865 ft | 488 kts | 163° |
| 2026-05-01 10:49 | -3.40600 | 106.47960 | 38859 ft | 488 kts | 163° |
| 2026-05-01 10:49 | -3.47167 | 106.49751 | 38861 ft | 487 kts | 163° |
| 2026-05-01 10:50 | -3.53675 | 106.51526 | 38867 ft | 487 kts | 163° |
| 2026-05-01 10:50 | -3.60226 | 106.53314 | 38863 ft | 487 kts | 163° |
| 2026-05-01 10:51 | -3.66775 | 106.55102 | 38867 ft | 487 kts | 164° |
| 2026-05-01 10:51 | -3.73380 | 106.56904 | 38868 ft | 494 kts | 164° |
| 2026-05-01 10:52 | -3.79967 | 106.58703 | 38869 ft | 494 kts | 164° |
| 2026-05-01 10:52 | -3.86612 | 106.60517 | 38866 ft | 494 kts | 164° |
| 2026-05-01 10:53 | -3.93242 | 106.62327 | 38862 ft | 494 kts | 164° |
| 2026-05-01 10:53 | -3.98763 | 106.63836 | 38864 ft | 494 kts | 164° |
| 2026-05-01 10:54 | -4.05415 | 106.65652 | 38861 ft | 494 kts | 164° |
| 2026-05-01 10:54 | -4.12057 | 106.67467 | 38862 ft | 494 kts | 164° |
| 2026-05-01 10:55 | -4.18665 | 106.69273 | 38864 ft | 495 kts | 164° |
| 2026-05-01 10:55 | -4.25314 | 106.71090 | 38864 ft | 495 kts | 164° |
| 2026-05-01 10:56 | -4.31960 | 106.72907 | 38863 ft | 495 kts | 164° |
| 2026-05-01 10:56 | -4.38609 | 106.74725 | 38863 ft | 495 kts | 164° |
| 2026-05-01 10:57 | -4.45260 | 106.76544 | 38863 ft | 495 kts | 164° |
| 2026-05-01 10:57 | -4.51873 | 106.78352 | 38864 ft | 495 kts | 164° |
| 2026-05-01 10:58 | -4.58531 | 106.80173 | 38862 ft | 495 kts | 164° |
| 2026-05-01 10:58 | -4.65176 | 106.81992 | 38864 ft | 495 kts | 164° |
| 2026-05-01 10:59 | -4.71816 | 106.83809 | 38861 ft | 495 kts | 164° |
| 2026-05-01 10:59 | -4.78428 | 106.85611 | 38858 ft | 495 kts | 164° |
| 2026-05-01 11:00 | -4.85072 | 106.87412 | 38859 ft | 494 kts | 164° |
| 2026-05-01 11:00 | -4.91725 | 106.89223 | 38860 ft | 495 kts | 164° |
| 2026-05-01 11:01 | -4.98386 | 106.91033 | 38855 ft | 494 kts | 164° |
| 2026-05-01 11:01 | -5.04996 | 106.92831 | 38853 ft | 494 kts | 164° |
| 2026-05-01 11:02 | -5.11613 | 106.94631 | 38854 ft | 494 kts | 164° |
| 2026-05-01 11:02 | -5.18269 | 106.96442 | 38855 ft | 494 kts | 164° |
| 2026-05-01 11:03 | -5.24911 | 106.98249 | 38854 ft | 495 kts | 164° |
| 2026-05-01 11:03 | -5.31568 | 107.00061 | 38859 ft | 495 kts | 164° |
| 2026-05-01 11:04 | -5.38224 | 107.01873 | 38867 ft | 495 kts | 164° |
| 2026-05-01 11:04 | -5.44851 | 107.03678 | 38861 ft | 496 kts | 164° |
| 2026-05-01 11:05 | -5.51518 | 107.05493 | 38864 ft | 496 kts | 164° |
| 2026-05-01 11:05 | -5.58175 | 107.07307 | 38861 ft | 496 kts | 164° |
| 2026-05-01 11:06 | -5.64840 | 107.09123 | 38864 ft | 495 kts | 164° |
| 2026-05-01 11:06 | -5.71462 | 107.10928 | 38864 ft | 496 kts | 164° |
| 2026-05-01 11:07 | -5.81459 | 107.13654 | 38866 ft | 496 kts | 164° |
| 2026-05-01 11:07 | -5.88112 | 107.15468 | 38863 ft | 495 kts | 164° |
| 2026-05-01 11:08 | -5.94768 | 107.17284 | 38863 ft | 495 kts | 164° |
| 2026-05-01 11:09 | -6.04717 | 107.19999 | 38864 ft | 495 kts | 164° |
| 2026-05-01 11:09 | -6.11379 | 107.21817 | 38876 ft | 495 kts | 164° |
| 2026-05-01 11:10 | -6.21349 | 107.24539 | 38884 ft | 494 kts | 164° |
| 2026-05-01 11:10 | -6.27990 | 107.26353 | 38884 ft | 494 kts | 164° |
| 2026-05-01 11:11 | -6.34574 | 107.28152 | 38891 ft | 493 kts | 164° |
| 2026-05-01 11:11 | -6.41207 | 107.29965 | 38896 ft | 493 kts | 164° |
| 2026-05-01 11:12 | -6.47841 | 107.31778 | 38903 ft | 494 kts | 164° |
| 2026-05-01 11:12 | -6.54442 | 107.33583 | 38903 ft | 494 kts | 164° |
| 2026-05-01 11:13 | -6.61095 | 107.35403 | 38912 ft | 494 kts | 164° |
| 2026-05-01 11:13 | -6.67723 | 107.37216 | 38918 ft | 494 kts | 164° |
| 2026-05-01 11:14 | -6.74352 | 107.39030 | 38926 ft | 494 kts | 164° |
| 2026-05-01 11:14 | -6.80995 | 107.40849 | 38930 ft | 494 kts | 164° |
| 2026-05-01 11:15 | -6.87628 | 107.42665 | 38939 ft | 495 kts | 164° |
| 2026-05-01 11:15 | -6.94284 | 107.44488 | 38946 ft | 495 kts | 164° |
| 2026-05-01 11:16 | -7.00944 | 107.46313 | 38952 ft | 496 kts | 164° |
| 2026-05-01 11:16 | -7.07604 | 107.48138 | 38952 ft | 497 kts | 164° |
| 2026-05-01 11:17 | -7.14246 | 107.49958 | 38958 ft | 498 kts | 164° |
| 2026-05-01 11:17 | -7.20938 | 107.51794 | 38952 ft | 498 kts | 164° |
| 2026-05-01 11:18 | -7.27637 | 107.53631 | 38941 ft | 499 kts | 164° |
| 2026-05-01 11:18 | -7.34337 | 107.55470 | 38935 ft | 499 kts | 164° |
| 2026-05-01 11:19 | -7.41038 | 107.57309 | 38930 ft | 499 kts | 164° |
| 2026-05-01 11:19 | -7.47743 | 107.59150 | 38917 ft | 498 kts | 165° |
| 2026-05-01 11:20 | -7.54401 | 107.60979 | 38908 ft | 498 kts | 165° |
| 2026-05-01 11:20 | -7.61089 | 107.62816 | 38896 ft | 497 kts | 165° |
| 2026-05-01 11:21 | -7.67767 | 107.64651 | 38889 ft | 497 kts | 165° |
| 2026-05-01 11:21 | -7.74412 | 107.66478 | 38877 ft | 498 kts | 165° |
| 2026-05-01 11:22 | -7.81098 | 107.68317 | 38879 ft | 498 kts | 165° |
| 2026-05-01 11:22 | -7.87803 | 107.70161 | 38875 ft | 499 kts | 165° |
| 2026-05-01 11:23 | -7.94466 | 107.71995 | 38873 ft | 499 kts | 165° |
| 2026-05-01 11:23 | -8.01178 | 107.73842 | 38874 ft | 500 kts | 166° |
| 2026-05-01 11:24 | -8.07907 | 107.75696 | 38870 ft | 501 kts | 166° |
| 2026-05-01 11:25 | -8.17999 | 107.78476 | 38876 ft | 500 kts | 166° |
| 2026-05-01 11:25 | -8.28098 | 107.81260 | 38879 ft | 501 kts | 166° |
| 2026-05-01 11:26 | -8.38151 | 107.84059 | 38878 ft | 501 kts | 165° |
| 2026-05-01 11:27 | -8.44863 | 107.85995 | 38876 ft | 501 kts | 165° |
| 2026-05-01 11:27 | -8.51549 | 107.87887 | 38875 ft | 501 kts | 165° |
| 2026-05-01 11:28 | -8.58263 | 107.89810 | 38883 ft | 501 kts | 165° |
| 2026-05-01 11:28 | -8.64968 | 107.91719 | 38879 ft | 501 kts | 165° |
| 2026-05-01 11:29 | -8.75043 | 107.94597 | 38877 ft | 501 kts | 165° |
| 2026-05-01 11:30 | -8.85059 | 107.97456 | 38878 ft | 501 kts | 165° |
| 2026-05-01 11:30 | -8.91793 | 107.99381 | 38879 ft | 501 kts | 165° |
| 2026-05-01 11:31 | -8.98503 | 108.01299 | 38882 ft | 501 kts | 165° |
| 2026-05-01 11:31 | -9.05165 | 108.03203 | 38878 ft | 501 kts | 165° |
| 2026-05-01 11:32 | -9.11879 | 108.05124 | 38881 ft | 501 kts | 165° |
| 2026-05-01 11:32 | -9.18601 | 108.07048 | 38880 ft | 501 kts | 165° |
| 2026-05-01 11:33 | -9.25333 | 108.08975 | 38888 ft | 501 kts | 166° |
| 2026-05-01 11:33 | -9.32005 | 108.10887 | 38884 ft | 501 kts | 166° |
| 2026-05-01 11:34 | -9.38720 | 108.12809 | 38885 ft | 501 kts | 166° |
| 2026-05-01 11:34 | -9.45446 | 108.14738 | 38888 ft | 501 kts | 165° |
| 2026-05-01 11:35 | -9.52118 | 108.16651 | 38891 ft | 501 kts | 165° |
| 2026-05-01 11:35 | -9.58835 | 108.18578 | 38890 ft | 501 kts | 165° |
| 2026-05-01 11:36 | -9.65549 | 108.20505 | 38890 ft | 501 kts | 166° |
| 2026-05-01 11:36 | -9.72259 | 108.22431 | 38889 ft | 501 kts | 166° |
| 2026-05-01 11:37 | -9.78956 | 108.24354 | 38897 ft | 502 kts | 166° |
| 2026-05-01 11:37 | -9.85675 | 108.26285 | 38893 ft | 502 kts | 166° |
| 2026-05-01 11:38 | -9.92399 | 108.28219 | 38899 ft | 502 kts | 166° |
| 2026-05-01 11:38 | -9.99131 | 108.30154 | 38904 ft | 502 kts | 166° |
| 2026-05-01 11:39 | -10.05816 | 108.32078 | 38902 ft | 502 kts | 166° |
| 2026-05-01 11:39 | -10.12536 | 108.34011 | 38903 ft | 501 kts | 166° |
| 2026-05-01 11:40 | -10.18115 | 108.35619 | 38903 ft | 501 kts | 166° |
| 2026-05-01 11:40 | -10.24825 | 108.37551 | 38905 ft | 501 kts | 166° |
| 2026-05-01 11:41 | -10.31536 | 108.39485 | 38908 ft | 500 kts | 166° |
| 2026-05-01 11:41 | -10.38234 | 108.41417 | 38909 ft | 500 kts | 166° |
| 2026-05-01 11:42 | -10.44946 | 108.43352 | 38906 ft | 500 kts | 166° |
| 2026-05-01 11:42 | -10.51643 | 108.45286 | 38904 ft | 500 kts | 166° |
| 2026-05-01 11:43 | -10.58316 | 108.47211 | 38910 ft | 500 kts | 166° |
| 2026-05-01 11:43 | -10.65007 | 108.49144 | 38909 ft | 500 kts | 166° |
| 2026-05-01 11:44 | -10.75045 | 108.52046 | 38912 ft | 500 kts | 166° |
| 2026-05-01 11:44 | -10.81717 | 108.53975 | 38914 ft | 500 kts | 166° |
| 2026-05-01 11:45 | -10.88412 | 108.55911 | 38917 ft | 500 kts | 166° |
| 2026-05-01 11:45 | -10.95110 | 108.57851 | 38919 ft | 500 kts | 166° |
| 2026-05-01 11:46 | -11.01818 | 108.59792 | 38921 ft | 500 kts | 166° |
| 2026-05-01 11:46 | -11.08471 | 108.61720 | 38921 ft | 500 kts | 166° |
| 2026-05-01 11:47 | -11.15168 | 108.63661 | 38921 ft | 500 kts | 166° |
| 2026-05-01 11:47 | -11.21872 | 108.65605 | 38920 ft | 500 kts | 166° |
| 2026-05-01 11:48 | -11.28575 | 108.67550 | 38918 ft | 500 kts | 166° |
| 2026-05-01 11:48 | -11.35267 | 108.69493 | 38927 ft | 500 kts | 166° |
| 2026-05-01 11:49 | -11.41964 | 108.71438 | 38924 ft | 500 kts | 166° |
| 2026-05-01 11:49 | -11.48631 | 108.73374 | 38929 ft | 500 kts | 166° |
| 2026-05-01 11:50 | -11.55332 | 108.75322 | 38928 ft | 500 kts | 166° |
| 2026-05-01 11:50 | -11.62019 | 108.77267 | 38928 ft | 499 kts | 166° |
| 2026-05-01 11:51 | -11.68672 | 108.79203 | 38930 ft | 499 kts | 166° |
| 2026-05-01 11:51 | -11.75352 | 108.81148 | 38932 ft | 499 kts | 166° |
| 2026-05-01 11:52 | -11.82024 | 108.83092 | 38934 ft | 498 kts | 166° |
| 2026-05-01 11:52 | -11.88664 | 108.85027 | 38939 ft | 498 kts | 166° |
| 2026-05-01 11:53 | -11.95332 | 108.86971 | 38938 ft | 497 kts | 166° |
| 2026-05-01 11:53 | -12.01958 | 108.89029 | 38953 ft | 498 kts | 163° |
| 2026-05-01 11:54 | -12.08554 | 108.91286 | 38940 ft | 499 kts | 163° |
| 2026-05-01 11:54 | -12.15140 | 108.93578 | 38938 ft | 500 kts | 163° |
| 2026-05-01 11:55 | -12.21690 | 108.95847 | 38941 ft | 500 kts | 163° |
| 2026-05-01 11:55 | -12.28280 | 108.98131 | 38940 ft | 500 kts | 163° |
| 2026-05-01 11:56 | -12.34871 | 109.00421 | 38943 ft | 500 kts | 163° |
| 2026-05-01 11:56 | -12.41429 | 109.02695 | 38941 ft | 500 kts | 163° |
| 2026-05-01 11:57 | -12.48022 | 109.04988 | 38943 ft | 500 kts | 163° |
| 2026-05-01 11:57 | -12.54635 | 109.07285 | 38941 ft | 501 kts | 163° |
| 2026-05-01 11:58 | -12.61243 | 109.09583 | 38948 ft | 501 kts | 163° |
| 2026-05-01 11:59 | -12.71112 | 109.13018 | 38946 ft | 502 kts | 163° |
| 2026-05-01 11:59 | -12.77732 | 109.15323 | 38947 ft | 502 kts | 163° |
| 2026-05-01 12:00 | -12.87654 | 109.18781 | 38951 ft | 502 kts | 163° |
| 2026-05-01 12:01 | -12.97594 | 109.22248 | 38952 ft | 503 kts | 163° |
| 2026-05-01 12:01 | -13.04226 | 109.24562 | 38958 ft | 503 kts | 163° |
| 2026-05-01 12:02 | -13.10817 | 109.26864 | 38965 ft | 504 kts | 163° |
| 2026-05-01 12:02 | -13.17461 | 109.29185 | 38962 ft | 504 kts | 163° |
| 2026-05-01 12:03 | -13.24115 | 109.31512 | 38952 ft | 505 kts | 163° |
| 2026-05-01 12:03 | -13.30735 | 109.33828 | 38961 ft | 505 kts | 163° |
| 2026-05-01 12:04 | -13.37397 | 109.36160 | 38963 ft | 505 kts | 163° |
| 2026-05-01 12:04 | -13.44058 | 109.38492 | 38961 ft | 506 kts | 163° |
| 2026-05-01 12:05 | -13.50729 | 109.40830 | 38968 ft | 506 kts | 163° |
| 2026-05-01 12:05 | -13.60735 | 109.44339 | 38970 ft | 506 kts | 164° |
| 2026-05-01 12:06 | -13.67378 | 109.46670 | 38971 ft | 507 kts | 164° |
| 2026-05-01 12:06 | -13.74052 | 109.49014 | 38967 ft | 507 kts | 164° |
| 2026-05-01 12:07 | -13.80735 | 109.51362 | 38972 ft | 507 kts | 164° |
| 2026-05-01 12:07 | -13.87422 | 109.53713 | 38972 ft | 507 kts | 164° |
| 2026-05-01 12:08 | -13.94095 | 109.56061 | 38974 ft | 508 kts | 164° |
| 2026-05-01 12:08 | -14.00787 | 109.58416 | 38974 ft | 508 kts | 164° |
| 2026-05-01 12:09 | -14.07447 | 109.60763 | 38978 ft | 508 kts | 164° |
| 2026-05-01 12:09 | -14.14147 | 109.63124 | 38981 ft | 509 kts | 164° |
| 2026-05-01 12:10 | -14.24204 | 109.66671 | 38981 ft | 509 kts | 164° |
| 2026-05-01 12:11 | -14.34241 | 109.70215 | 38984 ft | 509 kts | 164° |
| 2026-05-01 12:11 | -14.40957 | 109.72588 | 38981 ft | 509 kts | 164° |
| 2026-05-01 12:12 | -14.47668 | 109.74961 | 38987 ft | 510 kts | 165° |
| 2026-05-01 12:12 | -14.54374 | 109.77333 | 38987 ft | 509 kts | 165° |
| 2026-05-01 12:13 | -14.61089 | 109.79710 | 38987 ft | 509 kts | 165° |
| 2026-05-01 12:13 | -14.67756 | 109.82072 | 38983 ft | 509 kts | 165° |
| 2026-05-01 12:14 | -14.74474 | 109.84453 | 38986 ft | 510 kts | 165° |
| 2026-05-01 12:14 | -14.81188 | 109.86835 | 38988 ft | 510 kts | 165° |
| 2026-05-01 12:15 | -14.87905 | 109.89219 | 38989 ft | 510 kts | 165° |
| 2026-05-01 12:15 | -14.94578 | 109.91589 | 38990 ft | 510 kts | 165° |
| 2026-05-01 12:16 | -15.01298 | 109.93977 | 38989 ft | 509 kts | 165° |
| 2026-05-01 12:16 | -15.07972 | 109.96351 | 38984 ft | 509 kts | 165° |
| 2026-05-01 12:17 | -15.14674 | 109.98737 | 38985 ft | 509 kts | 165° |
| 2026-05-01 12:17 | -15.21372 | 110.01121 | 38988 ft | 509 kts | 165° |
| 2026-05-01 12:18 | -15.28082 | 110.03513 | 38990 ft | 509 kts | 165° |
| 2026-05-01 12:18 | -15.34786 | 110.05903 | 39001 ft | 509 kts | 165° |
| 2026-05-01 12:19 | -15.41446 | 110.08280 | 38999 ft | 509 kts | 165° |
| 2026-05-01 12:19 | -15.48155 | 110.10676 | 39006 ft | 510 kts | 165° |
| 2026-05-01 12:20 | -15.54869 | 110.13075 | 39003 ft | 510 kts | 165° |
| 2026-05-01 12:20 | -15.61578 | 110.15474 | 39002 ft | 509 kts | 165° |
| 2026-05-01 12:21 | -15.68281 | 110.17872 | 39002 ft | 509 kts | 165° |
| 2026-05-01 12:21 | -15.74952 | 110.20261 | 39003 ft | 509 kts | 165° |
| 2026-05-01 12:22 | -15.80522 | 110.22257 | 39007 ft | 510 kts | 165° |
| 2026-05-01 12:22 | -15.88364 | 110.25069 | 39010 ft | 510 kts | 165° |
| 2026-05-01 12:23 | -15.95078 | 110.27477 | 39005 ft | 510 kts | 165° |
| 2026-05-01 12:23 | -16.01790 | 110.29888 | 39002 ft | 510 kts | 165° |
| 2026-05-01 12:24 | -16.08462 | 110.32286 | 39011 ft | 510 kts | 165° |
| 2026-05-01 12:24 | -16.15187 | 110.34704 | 39006 ft | 510 kts | 165° |
| 2026-05-01 12:25 | -16.25221 | 110.38315 | 39012 ft | 510 kts | 166° |
| 2026-05-01 12:26 | -16.31939 | 110.40735 | 39014 ft | 510 kts | 166° |
| 2026-05-01 12:26 | -16.42016 | 110.44369 | 39020 ft | 510 kts | 166° |
| 2026-05-01 12:27 | -16.52061 | 110.47995 | 39012 ft | 511 kts | 166° |
| 2026-05-01 12:28 | -16.61062 | 110.51247 | 39021 ft | 511 kts | 166° |
| 2026-05-01 12:29 | -16.71113 | 110.54883 | 39022 ft | 512 kts | 166° |
| 2026-05-01 12:29 | -16.81200 | 110.58536 | 39021 ft | 512 kts | 166° |
| 2026-05-01 12:30 | -16.91288 | 110.62193 | 39023 ft | 512 kts | 166° |
| 2026-05-01 12:31 | -16.97983 | 110.64623 | 39023 ft | 512 kts | 166° |
| 2026-05-01 12:31 | -17.04725 | 110.67071 | 39024 ft | 513 kts | 166° |
| 2026-05-01 12:32 | -17.11478 | 110.69525 | 39025 ft | 514 kts | 166° |
| 2026-05-01 12:32 | -17.21621 | 110.73215 | 39026 ft | 515 kts | 166° |
| 2026-05-01 12:33 | -17.28410 | 110.75687 | 39028 ft | 516 kts | 166° |
| 2026-05-01 12:33 | -17.35206 | 110.78164 | 39027 ft | 517 kts | 166° |
| 2026-05-01 12:34 | -17.41981 | 110.80635 | 39030 ft | 516 kts | 166° |
| 2026-05-01 12:34 | -17.48778 | 110.83116 | 39031 ft | 516 kts | 166° |
| 2026-05-01 12:35 | -17.55572 | 110.85598 | 39030 ft | 516 kts | 166° |
| 2026-05-01 12:35 | -17.62328 | 110.88067 | 39034 ft | 517 kts | 166° |
| 2026-05-01 12:36 | -17.69135 | 110.90558 | 39034 ft | 517 kts | 166° |
| 2026-05-01 12:36 | -17.75895 | 110.93033 | 39038 ft | 517 kts | 167° |
| 2026-05-01 12:37 | -17.82702 | 110.95527 | 39037 ft | 517 kts | 167° |
| 2026-05-01 12:37 | -17.89497 | 110.98020 | 39041 ft | 517 kts | 167° |
| 2026-05-01 12:38 | -17.96298 | 111.00516 | 39038 ft | 517 kts | 167° |
| 2026-05-01 12:38 | -18.03052 | 111.02997 | 39041 ft | 517 kts | 167° |
| 2026-05-01 12:39 | -18.09850 | 111.05496 | 39038 ft | 517 kts | 167° |
| 2026-05-01 12:39 | -18.16644 | 111.07996 | 39043 ft | 517 kts | 167° |
| 2026-05-01 12:40 | -18.23406 | 111.10486 | 39040 ft | 517 kts | 167° |
| 2026-05-01 12:40 | -18.30202 | 111.12992 | 39043 ft | 517 kts | 167° |
| 2026-05-01 12:41 | -18.36992 | 111.15500 | 39042 ft | 517 kts | 167° |
| 2026-05-01 12:41 | -18.43787 | 111.18010 | 39043 ft | 517 kts | 167° |
| 2026-05-01 12:42 | -18.50582 | 111.20524 | 39044 ft | 517 kts | 167° |
| 2026-05-01 12:42 | -18.57329 | 111.23021 | 39049 ft | 517 kts | 167° |
| 2026-05-01 12:43 | -18.64125 | 111.25538 | 39048 ft | 517 kts | 167° |
| 2026-05-01 12:43 | -18.70919 | 111.28057 | 39050 ft | 517 kts | 168° |
| 2026-05-01 12:44 | -18.77705 | 111.30575 | 39046 ft | 517 kts | 168° |
| 2026-05-01 12:45 | -18.91288 | 111.35622 | 39053 ft | 517 kts | 168° |
| 2026-05-01 12:45 | -18.98067 | 111.38145 | 39051 ft | 516 kts | 168° |
| 2026-05-01 12:46 | -19.04820 | 111.40659 | 39055 ft | 516 kts | 168° |
| 2026-05-01 12:46 | -19.11615 | 111.43191 | 39055 ft | 516 kts | 168° |
| 2026-05-01 12:47 | -19.18390 | 111.45718 | 39056 ft | 515 kts | 168° |
| 2026-05-01 12:47 | -19.25110 | 111.48227 | 39054 ft | 515 kts | 168° |
| 2026-05-01 12:48 | -19.31877 | 111.50755 | 39057 ft | 515 kts | 168° |
| 2026-05-01 12:48 | -19.38635 | 111.53283 | 39058 ft | 515 kts | 168° |
| 2026-05-01 12:49 | -19.45394 | 111.55813 | 39060 ft | 514 kts | 168° |
| 2026-05-01 12:49 | -19.52093 | 111.58322 | 39062 ft | 514 kts | 168° |
| 2026-05-01 12:50 | -19.58849 | 111.60855 | 39062 ft | 515 kts | 168° |
| 2026-05-01 12:50 | -19.65607 | 111.63392 | 39056 ft | 515 kts | 168° |
| 2026-05-01 12:51 | -19.72374 | 111.65934 | 39064 ft | 515 kts | 168° |
| 2026-05-01 12:52 | -19.82469 | 111.69730 | 39065 ft | 515 kts | 168° |
| 2026-05-01 12:52 | -19.92615 | 111.73551 | 39063 ft | 515 kts | 168° |
| 2026-05-01 12:53 | -20.02705 | 111.77356 | 39062 ft | 515 kts | 168° |
| 2026-05-01 12:54 | -20.09509 | 111.79925 | 39066 ft | 515 kts | 168° |
| 2026-05-01 12:54 | -20.19608 | 111.83742 | 39073 ft | 515 kts | 168° |
| 2026-05-01 12:55 | -20.29712 | 111.87566 | 39070 ft | 515 kts | 168° |
| 2026-05-01 12:56 | -20.36483 | 111.90131 | 39074 ft | 516 kts | 168° |
| 2026-05-01 12:56 | -20.43257 | 111.92700 | 39071 ft | 516 kts | 168° |
| 2026-05-01 12:57 | -20.50013 | 111.95265 | 39070 ft | 515 kts | 168° |
| 2026-05-01 12:57 | -20.60162 | 111.99122 | 39073 ft | 515 kts | 168° |
| 2026-05-01 12:58 | -20.66875 | 112.01677 | 39071 ft | 515 kts | 168° |
| 2026-05-01 12:59 | -20.76996 | 112.05532 | 39069 ft | 515 kts | 168° |
| 2026-05-01 12:59 | -20.87140 | 112.09402 | 39072 ft | 516 kts | 168° |
| 2026-05-01 13:00 | -20.97253 | 112.13266 | 39075 ft | 516 kts | 168° |
| 2026-05-01 13:01 | -21.07420 | 112.17156 | 39077 ft | 518 kts | 168° |
| 2026-05-01 13:02 | -21.17638 | 112.21071 | 39078 ft | 521 kts | 168° |
| 2026-05-01 13:07 | -21.93248 | 112.50224 | 39083 ft | 524 kts | 169° |
| 2026-05-01 13:08 | -22.00115 | 112.52888 | 39082 ft | 524 kts | 169° |
| 2026-05-01 13:08 | -22.06993 | 112.55559 | 39085 ft | 525 kts | 168° |
| 2026-05-01 13:09 | -22.13836 | 112.58219 | 39090 ft | 525 kts | 168° |
| 2026-05-01 13:09 | -22.20721 | 112.60897 | 39089 ft | 526 kts | 168° |
| 2026-05-01 13:10 | -22.27625 | 112.63587 | 39093 ft | 527 kts | 168° |
| 2026-05-01 13:10 | -22.34530 | 112.66280 | 39087 ft | 528 kts | 168° |
| 2026-05-01 13:11 | -22.41456 | 112.68984 | 39094 ft | 529 kts | 168° |
| 2026-05-01 13:11 | -22.48336 | 112.71672 | 39094 ft | 529 kts | 168° |
| 2026-05-01 13:12 | -22.55292 | 112.74393 | 39094 ft | 530 kts | 168° |
| 2026-05-01 13:12 | -22.62199 | 112.77098 | 39096 ft | 531 kts | 168° |
| 2026-05-01 13:13 | -22.69155 | 112.79825 | 39098 ft | 530 kts | 168° |
| 2026-05-01 13:13 | -22.76099 | 112.82550 | 39099 ft | 530 kts | 168° |
| 2026-05-01 13:14 | -22.83047 | 112.85280 | 39097 ft | 530 kts | 168° |
| 2026-05-01 13:14 | -22.89919 | 112.87983 | 39087 ft | 529 kts | 169° |
| 2026-05-01 13:15 | -22.96850 | 112.90712 | 39101 ft | 529 kts | 169° |
| 2026-05-01 13:15 | -23.02608 | 112.92981 | 39105 ft | 529 kts | 169° |
| 2026-05-01 13:16 | -23.09531 | 112.95712 | 39113 ft | 530 kts | 169° |
| 2026-05-01 13:16 | -23.17598 | 112.98899 | 39112 ft | 530 kts | 169° |
| 2026-05-01 13:17 | -23.30313 | 113.03929 | 39107 ft | 531 kts | 169° |
| 2026-05-01 13:18 | -23.40734 | 113.08060 | 39111 ft | 532 kts | 169° |
| 2026-05-01 13:18 | -23.47705 | 113.10827 | 39114 ft | 532 kts | 169° |
| 2026-05-01 13:19 | -23.54677 | 113.13598 | 39115 ft | 533 kts | 169° |
| 2026-05-01 13:20 | -23.65104 | 113.17747 | 39115 ft | 534 kts | 169° |
| 2026-05-01 13:20 | -23.72088 | 113.20530 | 39121 ft | 534 kts | 169° |
| 2026-05-01 13:21 | -23.82564 | 113.24711 | 39126 ft | 534 kts | 169° |
| 2026-05-01 13:21 | -23.89569 | 113.27510 | 39119 ft | 535 kts | 169° |
| 2026-05-01 13:22 | -23.96502 | 113.30284 | 39110 ft | 535 kts | 169° |
| 2026-05-01 13:22 | -24.03498 | 113.33087 | 39121 ft | 535 kts | 169° |
| 2026-05-01 13:23 | -24.10504 | 113.35896 | 39124 ft | 535 kts | 169° |
| 2026-05-01 13:23 | -24.17508 | 113.38708 | 39123 ft | 536 kts | 169° |
| 2026-05-01 13:24 | -24.24470 | 113.41507 | 39124 ft | 536 kts | 169° |
| 2026-05-01 13:25 | -24.34998 | 113.45745 | 39126 ft | 537 kts | 169° |
| 2026-05-01 13:25 | -24.42015 | 113.48574 | 39127 ft | 537 kts | 169° |
| 2026-05-01 13:26 | -24.49022 | 113.51402 | 39127 ft | 537 kts | 170° |
| 2026-05-01 13:26 | -24.56051 | 113.54243 | 39131 ft | 537 kts | 170° |
| 2026-05-01 13:27 | -24.63064 | 113.57081 | 39137 ft | 537 kts | 170° |
| 2026-05-01 13:27 | -24.73560 | 113.61334 | 39138 ft | 538 kts | 170° |
| 2026-05-01 13:28 | -24.84118 | 113.65620 | 39136 ft | 538 kts | 170° |
| 2026-05-01 13:29 | -24.90862 | 113.69309 | 39164 ft | 559 kts | 153° |
| 2026-05-01 13:29 | -24.97291 | 113.74171 | 39145 ft | 559 kts | 153° |
| 2026-05-01 13:31 | -25.16482 | 113.88798 | 39145 ft | 558 kts | 154° |
| 2026-05-01 13:32 | -25.32405 | 114.00962 | 39152 ft | 556 kts | 154° |
| 2026-05-01 13:33 | -25.48266 | 114.13121 | 39147 ft | 555 kts | 154° |
| 2026-05-01 13:34 | -25.60919 | 114.22850 | 39149 ft | 553 kts | 154° |
| 2026-05-01 13:35 | -25.70402 | 114.30158 | 39152 ft | 552 kts | 154° |
| 2026-05-01 13:36 | -25.79876 | 114.37473 | 39157 ft | 552 kts | 154° |
| 2026-05-01 13:36 | -25.89295 | 114.44760 | 39161 ft | 551 kts | 154° |
| 2026-05-01 13:37 | -25.95587 | 114.49637 | 39159 ft | 550 kts | 154° |
| 2026-05-01 13:37 | -26.01866 | 114.54509 | 39162 ft | 549 kts | 154° |
| 2026-05-01 13:38 | -26.11254 | 114.61806 | 39166 ft | 548 kts | 154° |
| 2026-05-01 13:39 | -26.17471 | 114.66648 | 39170 ft | 547 kts | 154° |
| 2026-05-01 13:39 | -26.23702 | 114.71505 | 39171 ft | 546 kts | 154° |
| 2026-05-01 13:40 | -26.29927 | 114.76365 | 39176 ft | 546 kts | 154° |
| 2026-05-01 13:40 | -26.36153 | 114.81232 | 39167 ft | 545 kts | 154° |
| 2026-05-01 13:41 | -26.42318 | 114.86057 | 39177 ft | 545 kts | 154° |
| 2026-05-01 13:41 | -26.48522 | 114.90919 | 39178 ft | 544 kts | 153° |
| 2026-05-01 13:42 | -26.54712 | 114.95778 | 39181 ft | 543 kts | 153° |
| 2026-05-01 13:42 | -26.60899 | 115.00640 | 39190 ft | 542 kts | 153° |
| 2026-05-01 13:43 | -26.67044 | 115.05476 | 39186 ft | 542 kts | 153° |
| 2026-05-01 13:43 | -26.73201 | 115.10328 | 39198 ft | 541 kts | 153° |
| 2026-05-01 13:44 | -26.79355 | 115.15185 | 39193 ft | 540 kts | 153° |
| 2026-05-01 13:44 | -26.85498 | 115.20039 | 39196 ft | 539 kts | 153° |
| 2026-05-01 13:45 | -26.91619 | 115.24881 | 39206 ft | 538 kts | 154° |
| 2026-05-01 13:45 | -26.97684 | 115.29687 | 39198 ft | 537 kts | 154° |
| 2026-05-01 13:46 | -27.03799 | 115.34538 | 39206 ft | 536 kts | 153° |
| 2026-05-01 13:46 | -27.09889 | 115.39377 | 39213 ft | 535 kts | 154° |